createdAt,value
2023-02-09T00:01:51.764Z,10.00
2023-02-09T00:04:20.385Z,9.82
2023-02-09T00:06:49.115Z,9.32
2023-02-09T00:09:18.390Z,10.63
2023-02-09T00:12:10.250Z,9.75
2023-02-09T00:14:39.019Z,9.45
2023-02-09T00:17:10.151Z,10.18
2023-02-09T00:19:38.771Z,9.20
2023-02-09T00:22:07.260Z,10.43
2023-02-09T00:24:35.907Z,9.57
2023-02-09T00:27:04.910Z,9.52
2023-02-09T00:29:33.599Z,10.07
2023-02-09T00:32:02.297Z,8.98
2023-02-09T00:34:32.495Z,9.80
2023-02-09T00:37:01.100Z,9.23
2023-02-09T00:39:30.331Z,9.32
2023-02-09T00:42:08.063Z,8.32
2023-02-09T00:44:38.858Z,8.95
2023-02-09T00:47:09.136Z,9.43
2023-02-09T00:49:40.329Z,9.10
2023-02-09T00:52:10.096Z,9.18
2023-02-09T00:54:39.322Z,9.25
2023-02-09T00:57:08.091Z,9.32
2023-02-09T00:59:40.773Z,9.45
2023-02-09T01:02:09.586Z,9.27
2023-02-09T01:04:41.041Z,9.23
2023-02-09T01:07:09.781Z,9.05
2023-02-09T01:09:38.619Z,9.77
2023-02-09T01:12:08.178Z,9.77
2023-02-09T01:14:38.515Z,9.48
2023-02-09T01:17:07.598Z,9.73
2023-02-09T01:19:36.488Z,9.15
2023-02-09T01:22:07.209Z,9.63
2023-02-09T01:24:36.026Z,9.52
2023-02-09T01:27:05.567Z,8.98
2023-02-09T01:29:34.206Z,9.30
2023-02-09T01:32:03.103Z,8.80
2023-02-09T01:34:32.498Z,9.05
2023-02-09T01:37:01.554Z,9.50
2023-02-09T01:39:32.329Z,9.48
2023-02-09T01:42:00.926Z,9.68
2023-02-09T01:45:18.066Z,9.10
2023-02-09T01:47:51.918Z,9.77
2023-02-09T01:50:21.195Z,9.85
2023-02-09T01:52:50.949Z,9.25
2023-02-09T01:55:25.591Z,9.52
2023-02-09T01:57:59.591Z,11.98
2023-02-09T02:00:29.070Z,10.07
2023-02-09T02:03:02.387Z,10.18
2023-02-09T02:05:37.441Z,9.52
2023-02-09T02:10:41.956Z,9.02
2023-02-09T02:13:11.287Z,9.35
2023-02-09T02:15:52.723Z,9.10
2023-02-09T02:18:39.709Z,9.70
2023-02-09T02:21:45.228Z,9.02
2023-02-09T02:25:02.060Z,9.67
2023-02-09T02:30:39.238Z,9.35
2023-02-09T02:33:30.353Z,9.15
2023-02-09T02:36:08.946Z,9.82
2023-02-09T02:38:41.252Z,9.00
2023-02-09T02:41:17.830Z,9.20
2023-02-09T02:43:56.727Z,9.45
2023-02-09T02:46:34.878Z,10.30
2023-02-09T02:49:15.179Z,9.40
2023-02-09T02:51:47.065Z,10.00
2023-02-09T02:54:22.122Z,9.02
2023-02-09T02:56:56.622Z,10.10
2023-02-09T02:59:39.136Z,9.25
2023-02-09T03:02:12.531Z,9.85
2023-02-09T03:04:44.743Z,10.27
2023-02-09T03:07:13.496Z,9.30
2023-02-09T03:09:51.205Z,9.63
2023-02-09T03:12:33.610Z,9.27
2023-02-09T03:15:27.268Z,8.55
2023-02-09T03:18:08.095Z,8.73
2023-02-09T03:20:48.209Z,9.20
2023-02-09T03:23:28.965Z,9.48
2023-02-09T03:25:59.093Z,9.15
2023-02-09T03:28:35.017Z,9.20
2023-02-09T03:31:06.569Z,10.07
2023-02-09T03:33:38.196Z,9.35
2023-02-09T03:36:15.644Z,9.27
2023-02-09T03:38:44.332Z,9.68
2023-02-09T03:41:13.052Z,8.23
2023-02-09T03:43:59.221Z,9.63
2023-02-09T03:46:29.940Z,9.02
2023-02-09T03:48:58.817Z,10.32
2023-02-09T03:51:29.083Z,9.70
2023-02-09T03:53:58.009Z,9.40
2023-02-09T03:56:26.664Z,9.40
2023-02-09T03:58:56.330Z,9.25
2023-02-09T04:01:24.969Z,9.95
2023-02-09T04:03:53.906Z,9.85
2023-02-09T04:06:22.714Z,9.40
2023-02-09T04:08:52.634Z,9.23
2023-02-09T04:11:23.231Z,8.77
2023-02-09T04:13:52.079Z,9.43
2023-02-09T04:16:20.829Z,9.23
2023-02-09T04:18:49.733Z,10.35
2023-02-09T04:21:18.662Z,10.07
2023-02-09T04:23:47.646Z,10.23
2023-02-09T04:26:18.530Z,9.60
2023-02-09T04:28:47.564Z,10.20
2023-02-09T04:31:16.541Z,9.35
2023-02-09T04:33:47.631Z,9.77
2023-02-09T04:36:16.385Z,9.38
2023-02-09T04:38:45.040Z,9.70
2023-02-09T04:41:13.945Z,10.13
2023-02-09T04:43:50.824Z,10.15
2023-02-09T04:46:20.248Z,9.90
2023-02-09T04:48:49.419Z,9.32
2023-02-09T04:51:18.198Z,9.95
2023-02-09T04:53:47.094Z,9.38
2023-02-09T04:56:17.768Z,9.77
2023-02-09T04:59:05.581Z,9.55
2023-02-09T05:01:34.537Z,9.57
2023-02-09T05:04:03.586Z,8.65
2023-02-09T05:06:32.365Z,8.45
2023-02-09T05:09:01.009Z,9.13
2023-02-09T05:11:29.630Z,9.75
2023-02-09T05:14:00.570Z,8.93
2023-02-09T05:16:30.558Z,9.05
2023-02-09T05:18:59.379Z,8.60
2023-02-09T05:21:28.025Z,9.07
2023-02-09T05:23:56.770Z,8.65
2023-02-09T05:26:25.412Z,8.48
2023-02-09T05:28:54.450Z,8.75
2023-02-09T05:31:24.504Z,9.25
2023-02-09T05:33:53.205Z,9.02
2023-02-09T05:36:22.034Z,8.52
2023-02-09T05:38:50.713Z,9.80
2023-02-09T05:41:33.190Z,9.23
2023-02-09T05:44:03.513Z,9.20
2023-02-09T05:46:33.738Z,9.95
2023-02-09T05:49:03.178Z,9.43
2023-02-09T05:51:31.863Z,9.23
2023-02-09T05:54:00.864Z,9.10
2023-02-09T05:56:31.914Z,9.65
2023-02-09T05:59:00.880Z,9.05
2023-02-09T06:01:30.288Z,9.57
2023-02-09T06:04:00.391Z,9.77
2023-02-09T06:06:29.062Z,8.60
2023-02-09T06:08:57.589Z,9.68
2023-02-09T06:11:26.754Z,8.32
2023-02-09T06:13:55.316Z,8.63
2023-02-09T06:16:24.616Z,9.18
2023-02-09T06:18:53.423Z,8.80
2023-02-09T06:21:26.707Z,8.38
2023-02-09T06:23:55.328Z,9.20
2023-02-09T06:26:25.871Z,9.38
2023-02-09T06:28:56.854Z,9.95
2023-02-09T06:31:25.827Z,9.40
2023-02-09T06:33:54.557Z,7.97
2023-02-09T06:36:24.681Z,8.05
2023-02-09T06:38:53.496Z,9.05
2023-02-09T06:41:22.568Z,8.88
2023-02-09T06:43:51.175Z,8.15
2023-02-09T06:46:19.876Z,9.63
2023-02-09T06:48:48.967Z,9.05
2023-02-09T06:51:18.808Z,7.65
2023-02-09T06:53:48.955Z,9.52
2023-02-09T06:56:17.522Z,9.05
2023-02-09T06:58:46.056Z,8.82
2023-02-09T07:01:16.870Z,9.20
2023-02-09T07:03:46.279Z,9.23
2023-02-09T07:06:18.414Z,8.18
2023-02-09T07:08:50.287Z,8.90
2023-02-09T07:11:20.609Z,8.98
2023-02-09T07:13:50.131Z,8.63
2023-02-09T07:16:19.089Z,8.75
2023-02-09T07:18:48.092Z,8.45
2023-02-09T07:21:20.166Z,8.73
2023-02-09T07:23:50.952Z,9.77
2023-02-09T07:26:20.591Z,7.72
2023-02-09T07:28:49.128Z,9.00
2023-02-09T07:31:18.818Z,8.90
2023-02-09T07:33:50.404Z,8.55
2023-02-09T07:36:19.562Z,8.98
2023-02-09T07:38:50.277Z,8.45
2023-02-09T07:41:22.242Z,10.43
2023-02-09T07:43:51.051Z,8.95
2023-02-09T07:46:23.137Z,9.25
2023-02-09T07:48:52.218Z,8.57
2023-02-09T07:51:25.789Z,8.93
2023-02-09T07:53:57.635Z,10.20
2023-02-09T07:56:27.010Z,9.00
2023-02-09T07:58:57.277Z,9.70
2023-02-09T08:01:26.906Z,9.75
2023-02-09T08:03:55.665Z,9.57
2023-02-09T08:06:41.347Z,9.27
2023-02-09T08:09:14.435Z,9.40
2023-02-09T08:11:49.967Z,8.98
2023-02-09T08:14:22.366Z,9.15
2023-02-09T08:17:13.579Z,9.57
2023-02-09T08:19:43.286Z,9.70
2023-02-09T08:22:12.380Z,8.80
2023-02-09T08:24:43.815Z,9.48
2023-02-09T08:27:15.939Z,9.70
2023-02-09T08:29:46.542Z,9.05
2023-02-09T08:32:16.692Z,10.82
2023-02-09T08:34:47.093Z,9.02
2023-02-09T08:37:19.456Z,9.57
2023-02-09T08:39:53.762Z,8.98
2023-02-09T08:42:22.685Z,10.40
2023-02-09T08:44:51.728Z,9.60
2023-02-09T08:47:23.089Z,10.50
2023-02-09T08:49:52.355Z,9.77
2023-02-09T08:52:21.922Z,10.93
2023-02-09T08:54:54.221Z,9.32
2023-02-09T08:57:31.917Z,9.88
2023-02-09T09:00:08.042Z,9.82
2023-02-09T09:02:36.750Z,10.20
2023-02-09T09:05:06.372Z,9.82
2023-02-09T09:07:35.638Z,12.07
2023-02-09T09:10:08.942Z,10.00
2023-02-09T09:12:38.585Z,10.43
2023-02-09T09:15:08.450Z,10.77
2023-02-09T09:17:37.389Z,9.93
2023-02-09T09:20:07.109Z,10.30
2023-02-09T09:22:36.071Z,10.57
2023-02-09T09:25:07.356Z,11.02
2023-02-09T09:27:36.487Z,11.73
2023-02-09T09:30:06.634Z,10.55
2023-02-09T09:32:35.347Z,10.90
2023-02-09T09:35:04.099Z,10.68
2023-02-09T09:37:33.795Z,10.15
2023-02-09T09:40:02.506Z,10.02
2023-02-09T09:42:37.092Z,11.13
2023-02-09T09:45:09.076Z,10.60
2023-02-09T09:47:40.830Z,11.13
2023-02-09T09:50:18.086Z,11.00
2023-02-09T09:52:51.424Z,10.48
2023-02-09T09:55:26.655Z,11.10
2023-02-09T09:58:00.977Z,11.25
2023-02-09T10:00:36.360Z,10.73
2023-02-09T10:03:05.614Z,10.60
2023-02-09T10:05:44.463Z,11.13
2023-02-09T10:08:24.588Z,11.00
2023-02-09T10:10:59.622Z,10.88
2023-02-09T10:13:36.131Z,11.50
2023-02-09T10:16:06.347Z,11.45
2023-02-09T10:18:38.375Z,11.63
2023-02-09T10:21:10.243Z,11.90
2023-02-09T10:23:42.733Z,11.68
2023-02-09T10:26:31.109Z,12.32
2023-02-09T10:29:22.269Z,12.07
2023-02-09T10:31:56.726Z,12.27
2023-02-09T10:34:33.200Z,13.70
2023-02-09T10:37:27.560Z,13.93
2023-02-09T10:40:07.343Z,11.80
2023-02-09T10:42:38.649Z,11.95
2023-02-09T10:45:17.364Z,13.05
2023-02-09T10:48:00.224Z,13.50
2023-02-09T10:50:29.401Z,12.82
2023-02-09T10:53:01.622Z,13.43
2023-02-09T10:55:37.917Z,13.25
2023-02-09T10:58:16.646Z,12.77
2023-02-09T11:00:53.329Z,12.75
2023-02-09T11:03:26.599Z,12.50
2023-02-09T11:06:05.234Z,13.13
2023-02-09T11:08:46.918Z,13.13
2023-02-09T11:11:29.539Z,14.43
2023-02-09T11:13:59.072Z,12.52
2023-02-09T11:16:55.151Z,12.60
2023-02-09T11:22:55.003Z,12.52
2023-02-09T11:25:28.815Z,13.30
2023-02-09T11:28:29.537Z,13.48
2023-02-09T11:31:51.275Z,13.32
2023-02-09T11:35:00.774Z,13.40
2023-02-09T11:37:41.715Z,13.45
2023-02-09T11:40:25.542Z,13.27
2023-02-09T11:43:09.378Z,14.27
2023-02-09T11:45:45.691Z,15.10
2023-02-09T11:48:24.160Z,13.65
2023-02-09T11:51:05.779Z,14.18
2023-02-09T11:53:45.322Z,14.50
2023-02-09T11:56:17.102Z,14.45
2023-02-09T11:58:53.411Z,14.65
2023-02-09T12:01:38.170Z,15.20
2023-02-09T12:04:19.081Z,15.30
2023-02-09T12:06:52.719Z,15.27
2023-02-09T12:09:37.660Z,14.73
2023-02-09T12:12:20.040Z,14.97
2023-02-09T12:15:15.150Z,14.18
2023-02-09T12:17:49.780Z,14.35
2023-02-09T12:20:32.775Z,13.77
2023-02-09T12:23:07.711Z,14.18
2023-02-09T12:25:51.706Z,14.95
2023-02-09T12:28:42.717Z,14.23
2023-02-09T12:31:27.040Z,15.07
2023-02-09T12:34:29.711Z,15.57
2023-02-09T12:37:28.438Z,15.90
2023-02-09T12:40:23.907Z,15.55
2023-02-09T12:43:26.185Z,14.95
2023-02-09T12:46:48.768Z,15.43
2023-02-09T12:49:32.336Z,16.42
2023-02-09T12:52:17.596Z,17.40
2023-02-09T12:54:53.198Z,15.40
2023-02-09T12:57:55.362Z,15.20
2023-02-09T13:00:44.324Z,14.82
2023-02-09T13:03:20.709Z,15.85
2023-02-09T13:05:50.716Z,16.17
2023-02-09T13:08:47.240Z,15.90
2023-02-09T13:13:57.519Z,15.63
2023-02-09T13:16:48.199Z,15.88
2023-02-09T13:19:48.017Z,16.17
2023-02-09T13:22:40.833Z,16.48
2023-02-09T13:25:21.570Z,16.83
2023-02-09T13:27:51.429Z,16.67
2023-02-09T13:30:29.505Z,16.70
2023-02-09T13:33:09.122Z,16.20
2023-02-09T13:35:52.279Z,17.50
2023-02-09T13:38:23.162Z,15.95
2023-02-09T13:40:53.213Z,16.48
2023-02-09T13:43:32.518Z,16.92
2023-02-09T13:46:03.151Z,16.92
2023-02-09T13:48:37.625Z,16.92
2023-02-09T13:51:17.054Z,17.60
2023-02-09T13:53:58.439Z,17.63
2023-02-09T13:56:29.004Z,17.23
2023-02-09T13:58:58.360Z,17.33
2023-02-09T14:01:32.071Z,17.38
2023-02-09T14:04:08.396Z,17.58
2023-02-09T14:06:40.481Z,17.20
2023-02-09T14:09:17.581Z,17.13
2023-02-09T14:11:53.307Z,16.95
2023-02-09T14:14:26.874Z,18.17
2023-02-09T14:17:24.313Z,17.70
2023-02-09T14:19:54.480Z,18.10
2023-02-09T14:22:33.761Z,18.00
2023-02-09T14:25:18.332Z,18.15
2023-02-09T14:27:50.477Z,17.50
2023-02-09T14:30:22.180Z,18.17
2023-02-09T14:32:55.461Z,20.00
2023-02-09T14:35:26.827Z,18.98
2023-02-09T14:37:59.658Z,19.90
2023-02-09T14:40:34.269Z,19.35
2023-02-09T14:43:24.871Z,19.27
2023-02-09T14:46:02.365Z,19.23
2023-02-09T14:48:32.244Z,18.92
2023-02-09T14:51:03.474Z,18.92
2023-02-09T14:53:34.306Z,22.13
2023-02-09T14:56:03.271Z,19.27
2023-02-09T14:58:35.424Z,20.45
2023-02-09T15:01:04.650Z,19.98
2023-02-09T15:03:34.629Z,20.95
2023-02-09T15:06:05.386Z,20.50
2023-02-09T15:08:39.042Z,20.63
2023-02-09T15:11:25.747Z,20.08
2023-02-09T15:14:04.045Z,21.02
2023-02-09T15:16:33.296Z,21.67
2023-02-09T15:19:04.836Z,21.60
2023-02-09T15:21:33.664Z,20.27
2023-02-09T15:24:02.633Z,21.27
2023-02-09T15:26:34.136Z,22.27
2023-02-09T15:29:08.195Z,23.00
2023-02-09T15:31:36.916Z,23.50
2023-02-09T15:34:06.109Z,22.73
2023-02-09T15:36:35.395Z,23.65
2023-02-09T15:39:05.282Z,23.80
2023-02-09T15:41:51.367Z,22.45
2023-02-09T15:44:39.519Z,24.15
2023-02-09T15:47:25.403Z,24.42
2023-02-09T15:49:56.253Z,22.88
2023-02-09T15:52:24.986Z,24.55
2023-02-09T15:54:54.658Z,23.23
2023-02-09T15:57:25.256Z,24.35
2023-02-09T15:59:55.390Z,25.30
2023-02-09T16:02:24.251Z,24.08
2023-02-09T16:04:53.147Z,24.00
2023-02-09T16:07:25.964Z,24.13
2023-02-09T16:09:54.751Z,24.67
2023-02-09T16:12:23.540Z,25.70
2023-02-09T16:14:53.328Z,23.65
2023-02-09T16:17:25.058Z,24.25
2023-02-09T16:19:53.776Z,25.45
2023-02-09T16:22:25.164Z,25.02
2023-02-09T16:24:54.017Z,25.45
2023-02-09T16:27:28.481Z,25.42
2023-02-09T16:30:00.644Z,27.10
2023-02-09T16:32:30.825Z,25.67
2023-02-09T16:35:15.910Z,27.75
2023-02-09T16:37:48.551Z,26.48
2023-02-09T16:40:28.490Z,27.63
2023-02-09T16:42:58.449Z,27.48
2023-02-09T16:45:44.716Z,26.95
2023-02-09T16:48:25.292Z,26.50
2023-02-09T16:50:55.806Z,27.25
2023-02-09T16:53:33.128Z,29.40
2023-02-09T16:56:04.989Z,29.25
2023-02-09T16:58:34.174Z,30.25
2023-02-09T17:01:03.594Z,29.00
2023-02-09T17:03:39.448Z,34.80
2023-02-09T17:06:18.022Z,30.13
2023-02-09T17:08:47.586Z,29.25
2023-02-09T17:11:19.125Z,29.33
2023-02-09T17:13:48.992Z,31.13
2023-02-09T17:16:22.364Z,30.00
2023-02-09T17:19:03.837Z,30.70
2023-02-09T17:21:36.485Z,29.55
2023-02-09T17:24:12.862Z,29.33
2023-02-09T17:26:42.079Z,29.52
2023-02-09T17:29:12.331Z,31.10
2023-02-09T17:31:53.344Z,30.45
2023-02-09T17:34:27.349Z,31.52
2023-02-09T17:36:55.970Z,32.78
2023-02-09T17:39:25.104Z,33.30
2023-02-09T17:41:54.460Z,31.00
2023-02-09T17:44:44.648Z,32.80
2023-02-09T17:47:17.101Z,32.47
2023-02-09T17:49:47.413Z,35.35
2023-02-09T17:52:21.102Z,34.58
2023-02-09T17:54:51.125Z,36.83
2023-02-09T17:57:21.106Z,36.47
2023-02-09T17:59:50.596Z,36.65
2023-02-09T18:02:20.584Z,38.15
2023-02-09T18:04:50.701Z,35.72
2023-02-09T18:07:20.882Z,36.35
2023-02-09T18:09:49.681Z,36.08
2023-02-09T18:12:24.699Z,37.17
2023-02-09T18:14:53.833Z,36.58
2023-02-09T18:17:22.559Z,37.90
2023-02-09T18:19:52.495Z,38.60
2023-02-09T18:22:21.211Z,39.33
2023-02-09T18:24:50.043Z,39.63
2023-02-09T18:27:21.836Z,44.08
2023-02-09T18:29:50.554Z,41.58
2023-02-09T18:32:21.045Z,41.58
2023-02-09T18:34:51.746Z,41.40
2023-02-09T18:37:20.441Z,41.47
2023-02-09T18:39:48.927Z,39.80
2023-02-09T18:42:17.732Z,39.40
2023-02-09T18:44:46.809Z,40.60
2023-02-09T18:47:16.233Z,41.10
2023-02-09T18:49:44.991Z,40.58
2023-02-09T18:52:18.920Z,40.38
2023-02-09T18:54:48.335Z,39.80
2023-02-09T18:57:16.964Z,40.92
2023-02-09T18:59:47.914Z,43.00
2023-02-09T19:02:17.465Z,42.17
2023-02-09T19:04:46.234Z,42.53
2023-02-09T19:07:17.112Z,45.38
2023-02-09T19:09:46.901Z,42.53
2023-02-09T19:12:15.979Z,44.45
2023-02-09T19:14:47.732Z,49.58
2023-02-09T19:17:19.121Z,47.75
2023-02-09T19:19:48.694Z,43.25
2023-02-09T19:22:22.395Z,41.08
2023-02-09T19:24:53.329Z,43.97
2023-02-09T19:27:22.122Z,42.25
2023-02-09T19:29:55.702Z,42.78
2023-02-09T19:32:26.057Z,43.95
2023-02-09T19:34:55.160Z,42.85
2023-02-09T19:37:25.707Z,47.42
2023-02-09T19:40:04.231Z,44.22
2023-02-09T19:42:33.692Z,44.35
2023-02-09T19:45:02.203Z,44.70
2023-02-09T19:47:30.962Z,43.72
2023-02-09T19:50:00.685Z,49.42
2023-02-09T19:52:49.254Z,44.67
2023-02-09T19:55:18.114Z,41.40
2023-02-09T19:57:47.318Z,42.10
2023-02-09T20:00:19.806Z,42.13
2023-02-09T20:02:49.413Z,42.22
2023-02-09T20:05:19.452Z,43.55
2023-02-09T20:07:49.867Z,40.60
2023-02-09T20:10:19.205Z,42.17
2023-02-09T20:12:47.879Z,41.33
2023-02-09T20:15:17.143Z,41.47
2023-02-09T20:20:14.636Z,40.00
2023-02-09T20:22:43.413Z,44.80
2023-02-09T20:25:15.480Z,44.03
2023-02-09T20:27:44.398Z,43.25
2023-02-09T20:30:14.595Z,41.25
2023-02-09T20:32:43.522Z,41.20
2023-02-09T20:35:13.620Z,38.50
2023-02-09T20:37:42.370Z,40.47
2023-02-09T20:40:13.637Z,38.33
2023-02-09T20:42:59.926Z,38.22
2023-02-09T20:45:45.788Z,36.13
2023-02-09T20:48:15.049Z,45.90
2023-02-09T20:50:45.465Z,50.58
2023-02-09T20:53:14.814Z,44.63
2023-02-09T20:55:46.228Z,43.90
2023-02-09T20:58:15.651Z,47.53
2023-02-09T21:00:44.983Z,42.78
2023-02-09T21:03:14.115Z,40.28
2023-02-09T21:05:45.169Z,39.65
2023-02-09T21:08:13.944Z,36.78
2023-02-09T21:10:47.458Z,36.88
2023-02-09T21:13:16.813Z,38.72
2023-02-09T21:15:45.325Z,38.17
2023-02-09T21:18:14.298Z,38.00
2023-02-09T21:20:43.227Z,37.58
2023-02-09T21:23:11.947Z,36.97
2023-02-09T21:25:40.733Z,34.97
2023-02-09T21:28:11.344Z,35.42
2023-02-09T21:30:44.493Z,35.95
2023-02-09T21:33:14.903Z,35.13
2023-02-09T21:35:44.345Z,35.65
2023-02-09T21:38:13.615Z,36.25
2023-02-09T21:40:42.743Z,39.97
2023-02-09T21:43:13.376Z,38.13
2023-02-09T21:45:42.410Z,36.25
2023-02-09T21:48:13.046Z,35.10
2023-02-09T21:50:42.080Z,35.60
2023-02-09T21:53:10.757Z,34.60
2023-02-09T21:55:39.438Z,33.72
2023-02-09T21:58:09.130Z,35.20
2023-02-09T22:00:39.065Z,43.30
2023-02-09T22:03:07.682Z,35.38
2023-02-09T22:05:36.331Z,33.47
2023-02-09T22:08:05.116Z,32.38
2023-02-09T22:10:33.900Z,33.58
2023-02-09T22:13:08.458Z,32.88
2023-02-09T22:15:41.646Z,31.27
2023-02-09T22:18:13.572Z,31.25
2023-02-09T22:20:42.790Z,30.90
2023-02-09T22:23:11.503Z,30.83
2023-02-09T22:25:40.773Z,31.73
2023-02-09T22:28:09.627Z,31.65
2023-02-09T22:30:39.676Z,29.38
2023-02-09T22:33:10.091Z,28.67
2023-02-09T22:35:43.877Z,28.75
2023-02-09T22:38:12.689Z,29.23
2023-02-09T22:40:41.516Z,27.92
2023-02-09T22:43:10.218Z,25.73
2023-02-09T22:45:40.972Z,27.45
2023-02-09T22:48:11.942Z,28.33
2023-02-09T22:50:40.559Z,27.55
2023-02-09T22:53:09.139Z,27.42
2023-02-09T22:55:37.636Z,31.52
2023-02-09T22:58:06.191Z,38.22
2023-02-09T23:00:34.715Z,29.25
2023-02-09T23:03:04.793Z,27.38
2023-02-09T23:05:33.435Z,31.05
2023-02-09T23:08:01.920Z,26.83
2023-02-09T23:10:32.302Z,27.52
2023-02-09T23:13:01.805Z,28.05
2023-02-09T23:15:30.383Z,26.17
2023-02-09T23:17:59.199Z,25.20
2023-02-09T23:20:30.618Z,25.95
2023-02-09T23:23:01.450Z,26.05
2023-02-09T23:25:30.085Z,26.83
2023-02-09T23:27:58.882Z,28.08
2023-02-09T23:30:28.551Z,27.48
2023-02-09T23:32:57.220Z,29.20
2023-02-09T23:35:26.009Z,28.35
2023-02-09T23:37:58.053Z,29.58
2023-02-09T23:40:26.728Z,27.75
2023-02-09T23:42:55.212Z,27.02
2023-02-09T23:45:24.555Z,26.52
2023-02-09T23:47:53.163Z,27.38
2023-02-09T23:50:21.593Z,26.85
2023-02-09T23:52:50.298Z,30.80
2023-02-09T23:55:20.417Z,27.83
2023-02-09T23:57:49.044Z,28.30
